DRRM

Maradi Airport

Maradi, Niger
METAR DRRM 211800Z 28008KT 9999 FEW030 32/19 Q1013
Observed Flight Rules
Jun-21 @ 18:00 UTC (12 hours ago) Visual Flight Rules
Wind Visibility Clouds
280° at 8 knots 10,000+ meters
  • Few at 3,000' AGL
Temperatures Readings
Current 32°C / 90°F
Dewpoint 19°C / 66°F
Humidity 46%
Altimeter 29.91" Hg
Pressure 1013 hPa
Elevation 373
METAR DRRM 211800Z 28008KT 9999 FEW030 32/19 Q1013
Observed Flight Rules
Jun-21 @ 18:00 UTC
(12 hours ago)
VFR
Wind Visibility
280° at 8 knots 10,000+ meters
Clouds
  • Few at 3,000' AGL
Temperature Dewpoint
32°C / 90°F 19°C / 66°F
Humidity Altimeter Pressure
46% 29.91" Hg 1013 hPa